createdAt,value
2022-08-16T00:02:23.384Z,20.30
2022-08-16T00:04:51.518Z,20.20
2022-08-16T00:07:20.499Z,20.00
2022-08-16T00:09:48.543Z,19.90
2022-08-16T00:12:18.088Z,20.00
2022-08-16T00:14:47.860Z,20.00
2022-08-16T00:17:18.301Z,20.00
2022-08-16T00:19:49.009Z,20.00
2022-08-16T00:22:25.098Z,20.00
2022-08-16T00:24:54.283Z,19.80
2022-08-16T00:27:22.959Z,19.90
2022-08-16T00:30:00.691Z,19.90
2022-08-16T00:32:37.364Z,19.80
2022-08-16T00:35:15.068Z,19.70
2022-08-16T00:37:56.980Z,19.70
2022-08-16T00:40:34.768Z,19.60
2022-08-16T00:43:11.674Z,19.50
2022-08-16T00:45:57.868Z,19.50
2022-08-16T00:48:30.495Z,19.40
2022-08-16T00:50:59.833Z,19.50
2022-08-16T00:53:30.896Z,19.50
2022-08-16T00:56:05.285Z,19.50
2022-08-16T00:58:36.954Z,19.40
2022-08-16T01:01:08.776Z,19.50
2022-08-16T01:03:41.699Z,19.40
2022-08-16T01:06:40.075Z,19.30
2022-08-16T01:09:00.440Z,19.30
2022-08-16T01:11:29.487Z,19.30
2022-08-16T01:14:01.598Z,19.30
2022-08-16T01:16:32.075Z,19.20
2022-08-16T01:19:12.717Z,19.30
2022-08-16T01:21:48.923Z,19.20
2022-08-16T01:24:52.964Z,19.10
2022-08-16T01:27:17.467Z,19.00
2022-08-16T01:29:57.853Z,19.10
2022-08-16T01:32:33.855Z,19.10
2022-08-16T01:35:05.298Z,19.10
2022-08-16T01:37:40.558Z,19.00
2022-08-16T01:40:13.982Z,19.00
2022-08-16T01:42:44.291Z,18.90
2022-08-16T01:45:19.653Z,19.00
2022-08-16T01:47:51.902Z,19.10
2022-08-16T01:50:42.430Z,19.00
2022-08-16T01:53:11.157Z,19.10
2022-08-16T01:55:42.786Z,19.00
2022-08-16T01:58:23.679Z,19.10
2022-08-16T02:00:51.680Z,19.10
2022-08-16T02:03:24.184Z,19.20
2022-08-16T02:05:52.509Z,19.20
2022-08-16T02:08:33.462Z,19.10
2022-08-16T02:11:04.880Z,19.00
2022-08-16T02:13:33.058Z,19.10
2022-08-16T02:16:01.198Z,19.00
2022-08-16T02:18:29.814Z,18.90
2022-08-16T02:20:57.971Z,18.80
2022-08-16T02:23:29.598Z,18.80
2022-08-16T02:25:57.719Z,18.90
2022-08-16T02:28:30.049Z,18.80
2022-08-16T02:31:00.441Z,18.90
2022-08-16T02:33:44.035Z,18.80
2022-08-16T02:36:42.441Z,18.70
2022-08-16T02:39:06.566Z,18.70
2022-08-16T02:41:34.607Z,18.80
2022-08-16T02:44:11.241Z,18.80
2022-08-16T02:46:50.484Z,18.70
2022-08-16T02:49:18.878Z,18.60
2022-08-16T02:51:48.467Z,18.60
2022-08-16T02:54:18.046Z,18.50
2022-08-16T02:56:47.804Z,18.60
2022-08-16T02:59:17.297Z,18.60
2022-08-16T03:01:47.096Z,18.50
2022-08-16T03:04:40.782Z,18.60
2022-08-16T03:07:06.224Z,18.50
2022-08-16T03:09:34.294Z,18.50
2022-08-16T03:12:03.662Z,18.50
2022-08-16T03:14:33.820Z,18.50
2022-08-16T03:17:02.205Z,18.50
2022-08-16T03:19:48.119Z,18.60
2022-08-16T03:22:29.133Z,18.60
2022-08-16T03:25:01.102Z,18.40
2022-08-16T03:27:30.773Z,18.30
2022-08-16T03:30:02.506Z,18.20
2022-08-16T03:32:45.131Z,18.20
2022-08-16T03:35:17.944Z,18.20
2022-08-16T03:38:02.157Z,18.30
2022-08-16T03:40:33.813Z,18.30
2022-08-16T03:43:19.598Z,18.30
2022-08-16T03:45:52.544Z,18.30
2022-08-16T03:48:36.202Z,18.20
2022-08-16T03:51:07.950Z,18.00
2022-08-16T03:53:37.680Z,18.00
2022-08-16T03:56:07.903Z,17.90
2022-08-16T03:58:48.415Z,17.90
2022-08-16T04:01:20.085Z,17.90
2022-08-16T04:03:47.968Z,17.90
2022-08-16T04:06:17.948Z,17.90
2022-08-16T04:08:45.955Z,17.90
2022-08-16T04:11:16.373Z,17.90
2022-08-16T04:14:00.563Z,17.70
2022-08-16T04:16:35.345Z,17.70
2022-08-16T04:19:04.579Z,17.70
2022-08-16T04:21:33.276Z,17.70
2022-08-16T04:24:03.091Z,17.60
2022-08-16T04:26:32.089Z,17.60
2022-08-16T04:29:17.101Z,17.60
2022-08-16T04:31:56.242Z,17.70
2022-08-16T04:34:27.904Z,17.70
2022-08-16T04:36:57.683Z,17.80
2022-08-16T04:39:37.067Z,17.80
2022-08-16T04:42:15.267Z,17.80
2022-08-16T04:44:54.447Z,17.80
2022-08-16T04:47:31.617Z,17.70
2022-08-16T04:50:01.724Z,17.60
2022-08-16T04:52:33.155Z,17.50
2022-08-16T04:55:06.139Z,17.60
2022-08-16T04:57:34.064Z,17.60
2022-08-16T05:00:30.300Z,17.70
2022-08-16T05:02:54.920Z,17.70
2022-08-16T05:05:25.113Z,17.80
2022-08-16T05:08:00.018Z,17.60
2022-08-16T05:10:29.594Z,17.60
2022-08-16T05:12:57.841Z,17.60
2022-08-16T05:15:26.337Z,17.50
2022-08-16T05:17:59.114Z,17.50
2022-08-16T05:20:35.543Z,17.50
2022-08-16T05:23:15.082Z,17.50
2022-08-16T05:25:47.827Z,17.60
2022-08-16T05:28:16.393Z,17.70
2022-08-16T05:30:44.286Z,17.70
2022-08-16T05:33:16.240Z,17.80
2022-08-16T05:35:55.089Z,17.80
2022-08-16T05:38:33.476Z,17.90
2022-08-16T05:41:09.474Z,17.80
2022-08-16T05:43:43.298Z,18.00
2022-08-16T05:46:30.346Z,18.00
2022-08-16T05:49:08.798Z,18.10
2022-08-16T05:51:38.480Z,18.10
2022-08-16T05:54:11.225Z,18.10
2022-08-16T05:56:39.638Z,18.20
2022-08-16T05:59:08.506Z,18.40
2022-08-16T06:01:38.820Z,18.50
2022-08-16T06:04:12.507Z,18.60
2022-08-16T06:06:43.575Z,18.70
2022-08-16T06:09:25.865Z,18.70
2022-08-16T06:12:11.985Z,18.90
2022-08-16T06:14:40.232Z,19.00
2022-08-16T06:17:08.215Z,19.00
2022-08-16T06:19:40.435Z,19.10
2022-08-16T06:22:09.618Z,19.10
2022-08-16T06:24:54.745Z,19.20
2022-08-16T06:27:23.752Z,19.10
2022-08-16T06:29:51.875Z,19.20
2022-08-16T06:32:27.834Z,19.20
2022-08-16T06:35:02.936Z,19.30
2022-08-16T06:37:36.959Z,19.40
2022-08-16T06:40:12.838Z,19.50
2022-08-16T06:42:47.602Z,19.60
2022-08-16T06:45:16.210Z,19.80
2022-08-16T06:47:53.382Z,19.90
2022-08-16T06:50:28.888Z,20.00
2022-08-16T06:53:01.088Z,20.10
2022-08-16T06:55:35.439Z,20.20
2022-08-16T06:58:08.536Z,20.30
2022-08-16T07:00:50.354Z,20.40
2022-08-16T07:03:27.838Z,20.50
2022-08-16T07:06:01.564Z,20.60
2022-08-16T07:08:31.327Z,20.70
2022-08-16T07:10:59.749Z,20.80
2022-08-16T07:14:00.318Z,21.00
2022-08-16T07:16:20.487Z,21.00
2022-08-16T07:18:58.775Z,21.10
2022-08-16T07:21:42.282Z,21.30
2022-08-16T07:24:29.519Z,21.40
2022-08-16T07:26:58.862Z,21.50
2022-08-16T07:29:31.838Z,21.70
2022-08-16T07:32:00.904Z,21.80
2022-08-16T07:34:35.714Z,22.00
2022-08-16T07:37:10.892Z,22.10
2022-08-16T07:39:43.140Z,22.30
2022-08-16T07:42:20.254Z,22.50
2022-08-16T07:44:57.116Z,22.60
2022-08-16T07:47:31.473Z,22.80
2022-08-16T07:49:59.989Z,22.90
2022-08-16T07:52:34.737Z,23.10
2022-08-16T07:55:07.800Z,23.30
2022-08-16T07:57:55.767Z,23.50
2022-08-16T08:00:26.343Z,23.90
2022-08-16T08:02:55.500Z,24.40
2022-08-16T08:05:35.945Z,24.90
2022-08-16T08:08:11.931Z,25.50
2022-08-16T08:10:54.158Z,26.10
2022-08-16T08:13:41.736Z,26.70
2022-08-16T08:16:19.046Z,27.00
2022-08-16T08:18:49.888Z,27.60
2022-08-16T08:21:19.557Z,28.00
2022-08-16T08:23:58.002Z,28.40
2022-08-16T08:26:26.240Z,28.70
2022-08-16T08:29:00.714Z,29.00
2022-08-16T08:31:29.030Z,29.20
2022-08-16T08:33:59.670Z,29.50
2022-08-16T08:36:32.976Z,29.50
2022-08-16T08:39:03.808Z,29.80
2022-08-16T08:41:42.469Z,30.10
2022-08-16T08:44:29.311Z,30.40
2022-08-16T08:47:00.619Z,30.60
2022-08-16T08:49:46.293Z,30.50
2022-08-16T08:52:35.114Z,30.50
2022-08-16T08:55:10.981Z,31.00
2022-08-16T08:57:40.927Z,31.10
2022-08-16T09:00:13.871Z,31.00
2022-08-16T09:02:44.491Z,31.00
2022-08-16T09:05:16.103Z,31.30
2022-08-16T09:08:01.326Z,31.30
2022-08-16T09:10:32.437Z,31.50
2022-08-16T09:13:01.944Z,31.50
2022-08-16T09:15:32.601Z,31.60
2022-08-16T09:18:24.591Z,31.90
2022-08-16T09:20:58.606Z,32.10
2022-08-16T09:23:29.303Z,31.80
2022-08-16T09:25:58.695Z,31.90
2022-08-16T09:29:13.658Z,31.80
2022-08-16T09:31:15.444Z,32.10
2022-08-16T09:33:44.425Z,32.10
2022-08-16T09:36:32.073Z,32.30
2022-08-16T09:39:03.334Z,32.10
2022-08-16T09:41:33.544Z,31.90
2022-08-16T09:45:12.315Z,31.60
2022-08-16T09:46:57.484Z,31.70
2022-08-16T09:49:36.942Z,31.80
2022-08-16T09:52:05.630Z,32.10
2022-08-16T09:54:34.391Z,32.20
2022-08-16T09:57:04.418Z,32.20
2022-08-16T09:59:38.592Z,32.40
2022-08-16T10:02:27.718Z,32.80
2022-08-16T10:04:57.215Z,32.90
2022-08-16T10:07:25.905Z,32.90
2022-08-16T10:09:56.141Z,32.40
2022-08-16T10:12:45.267Z,32.50
2022-08-16T10:15:17.197Z,32.50
2022-08-16T10:18:00.895Z,32.50
2022-08-16T10:20:34.593Z,32.70
2022-08-16T10:23:07.612Z,32.90
2022-08-16T10:27:18.016Z,32.90
2022-08-16T10:28:32.568Z,33.30
2022-08-16T10:31:12.016Z,33.00
2022-08-16T10:33:44.822Z,32.80
2022-08-16T10:36:39.003Z,33.20
2022-08-16T10:39:02.812Z,33.20
2022-08-16T10:41:32.522Z,33.00
2022-08-16T10:44:02.118Z,33.10
2022-08-16T10:46:39.706Z,33.20
2022-08-16T10:49:11.254Z,32.90
2022-08-16T10:52:03.202Z,33.20
2022-08-16T10:54:29.375Z,33.00
2022-08-16T10:56:59.274Z,32.90
2022-08-16T10:59:38.389Z,33.40
2022-08-16T11:02:59.635Z,33.30
2022-08-16T11:05:07.051Z,33.60
2022-08-16T11:07:45.446Z,33.80
2022-08-16T11:13:57.345Z,34.10
2022-08-16T11:16:25.368Z,34.20
2022-08-16T11:19:06.206Z,34.10
2022-08-16T11:22:22.595Z,34.20
2022-08-16T11:24:41.496Z,34.20
2022-08-16T11:27:32.723Z,34.30
2022-08-16T11:29:58.974Z,34.20
2022-08-16T11:32:32.081Z,33.80
2022-08-16T11:35:14.660Z,33.50
2022-08-16T11:40:38.598Z,33.50
2022-08-16T11:43:09.910Z,33.40
2022-08-16T11:45:38.327Z,33.40
2022-08-16T11:48:08.344Z,33.50
2022-08-16T11:50:36.922Z,33.30
2022-08-16T11:53:06.183Z,33.40
2022-08-16T11:55:38.481Z,33.20
2022-08-16T11:58:08.057Z,33.40
2022-08-16T12:00:51.934Z,33.40
2022-08-16T12:03:34.784Z,33.30
2022-08-16T12:06:08.042Z,33.10
2022-08-16T12:08:41.289Z,32.90
2022-08-16T12:11:10.515Z,32.90
2022-08-16T12:13:38.736Z,32.80
2022-08-16T12:16:08.141Z,32.70
2022-08-16T12:18:40.125Z,32.60
2022-08-16T12:21:09.872Z,32.60
2022-08-16T12:23:38.350Z,32.20
2022-08-16T12:26:10.514Z,31.90
2022-08-16T12:28:54.895Z,31.80
2022-08-16T12:31:24.742Z,31.70
2022-08-16T12:33:57.496Z,31.80
2022-08-16T12:36:29.982Z,31.80
2022-08-16T12:38:58.809Z,31.90
2022-08-16T12:41:26.810Z,31.80
2022-08-16T12:43:57.056Z,31.60
2022-08-16T12:46:29.953Z,31.50
2022-08-16T12:49:00.735Z,31.50
2022-08-16T12:51:58.516Z,31.20
2022-08-16T12:54:20.797Z,31.10
2022-08-16T12:56:50.515Z,30.90
2022-08-16T12:59:20.787Z,30.90
2022-08-16T13:01:50.451Z,31.10
2022-08-16T13:04:21.380Z,31.10
2022-08-16T13:06:53.217Z,31.00
2022-08-16T13:09:24.139Z,30.70
2022-08-16T13:12:03.405Z,30.60
2022-08-16T13:14:35.623Z,30.70
2022-08-16T13:17:06.840Z,30.80
2022-08-16T13:20:06.138Z,30.70
2022-08-16T13:22:25.706Z,30.80
2022-08-16T13:24:54.382Z,30.70
2022-08-16T13:28:02.859Z,30.70
2022-08-16T13:30:36.261Z,30.70
2022-08-16T13:32:59.800Z,30.60
2022-08-16T13:35:34.359Z,30.50
2022-08-16T13:38:02.880Z,30.50
2022-08-16T13:40:31.295Z,30.40
2022-08-16T13:42:59.349Z,30.40
2022-08-16T13:45:28.071Z,30.40
2022-08-16T13:48:05.379Z,30.40
2022-08-16T13:50:51.556Z,30.30
2022-08-16T13:53:24.433Z,30.10
2022-08-16T13:55:57.870Z,30.20
2022-08-16T13:58:36.796Z,30.20
2022-08-16T14:01:09.785Z,30.20
2022-08-16T14:03:38.831Z,30.20
2022-08-16T14:06:10.834Z,30.10
2022-08-16T14:08:42.522Z,30.10
2022-08-16T14:11:12.442Z,30.00
2022-08-16T14:13:42.056Z,29.90
2022-08-16T14:16:12.739Z,29.90
2022-08-16T14:18:52.742Z,30.00
2022-08-16T14:21:23.817Z,30.10
2022-08-16T14:23:52.913Z,30.00
2022-08-16T14:26:21.401Z,29.90
2022-08-16T14:28:50.855Z,29.80
2022-08-16T14:31:19.961Z,29.80
2022-08-16T14:33:48.068Z,29.70
2022-08-16T14:36:18.777Z,29.70
2022-08-16T14:38:58.855Z,29.70
2022-08-16T14:41:27.291Z,29.80
2022-08-16T14:43:55.304Z,29.80
2022-08-16T14:46:23.375Z,29.80
2022-08-16T14:48:52.196Z,29.90
2022-08-16T14:51:21.324Z,29.90
2022-08-16T14:53:52.173Z,29.80
2022-08-16T14:56:38.718Z,29.90
2022-08-16T14:59:10.849Z,29.80
2022-08-16T15:01:59.359Z,29.80
2022-08-16T15:04:32.451Z,29.90
2022-08-16T15:07:10.901Z,29.90
2022-08-16T15:09:44.283Z,29.90
2022-08-16T15:12:31.111Z,29.80
2022-08-16T15:15:04.337Z,29.80
2022-08-16T15:17:40.443Z,29.80
2022-08-16T15:20:09.929Z,29.90
2022-08-16T15:22:40.354Z,29.90
2022-08-16T15:25:12.169Z,29.80
2022-08-16T15:27:43.477Z,29.90
2022-08-16T15:30:57.447Z,29.90
2022-08-16T15:33:04.151Z,29.80
2022-08-16T15:35:33.364Z,29.80
2022-08-16T15:38:09.139Z,29.80
2022-08-16T15:40:56.893Z,29.80
2022-08-16T15:43:39.308Z,29.80
2022-08-16T15:46:54.013Z,29.80
2022-08-16T15:49:12.968Z,29.70
2022-08-16T15:51:44.742Z,29.70
2022-08-16T15:54:21.072Z,29.70
2022-08-16T15:57:02.994Z,29.70
2022-08-16T15:59:48.619Z,29.60
2022-08-16T16:02:27.708Z,29.60
2022-08-16T16:05:00.816Z,29.50
2022-08-16T16:07:30.525Z,29.50
2022-08-16T16:09:59.274Z,29.50
2022-08-16T16:15:18.563Z,29.50
2022-08-16T16:17:50.853Z,29.50
2022-08-16T16:20:19.727Z,29.40
2022-08-16T16:22:49.959Z,29.40
2022-08-16T16:25:18.518Z,29.30
2022-08-16T16:27:46.654Z,29.30
2022-08-16T16:30:37.980Z,29.30
2022-08-16T16:33:21.025Z,29.30
2022-08-16T16:35:55.260Z,29.30
2022-08-16T16:38:28.499Z,29.30
2022-08-16T16:40:56.786Z,29.30
2022-08-16T16:43:25.975Z,29.30
2022-08-16T16:46:01.647Z,29.30
2022-08-16T16:48:34.954Z,29.40
2022-08-16T16:51:09.418Z,29.30
2022-08-16T16:53:42.010Z,29.30
2022-08-16T16:56:19.404Z,29.20
2022-08-16T16:59:01.259Z,29.20
2022-08-16T17:01:56.732Z,29.10
2022-08-16T17:04:31.838Z,29.10
2022-08-16T17:07:01.338Z,29.10
2022-08-16T17:09:29.391Z,29.00
2022-08-16T17:11:58.105Z,29.00
2022-08-16T17:14:32.867Z,29.00
2022-08-16T17:17:06.786Z,28.90
2022-08-16T17:19:40.234Z,28.90
2022-08-16T17:22:14.811Z,28.80
2022-08-16T17:24:45.604Z,28.80
2022-08-16T17:27:19.361Z,28.70
2022-08-16T17:30:01.200Z,28.60
2022-08-16T17:32:34.077Z,28.60
2022-08-16T17:35:19.055Z,28.60
2022-08-16T17:39:28.390Z,28.50
2022-08-16T17:40:47.098Z,28.50
2022-08-16T17:43:27.161Z,28.40
2022-08-16T17:45:55.738Z,28.30
2022-08-16T17:48:25.206Z,28.20
2022-08-16T17:50:54.429Z,28.20
2022-08-16T17:53:22.769Z,28.20
2022-08-16T17:55:51.351Z,28.10
2022-08-16T17:58:23.687Z,28.00
2022-08-16T18:00:53.921Z,27.90
2022-08-16T18:04:03.018Z,27.90
2022-08-16T18:06:17.699Z,27.80
2022-08-16T18:08:48.345Z,27.70
2022-08-16T18:11:26.152Z,27.70
2022-08-16T18:13:54.899Z,27.60
2022-08-16T18:16:23.144Z,27.50
2022-08-16T18:18:52.343Z,27.40
2022-08-16T18:21:37.616Z,27.40
2022-08-16T18:24:05.887Z,27.30
2022-08-16T18:26:33.995Z,27.20
2022-08-16T18:29:01.930Z,27.10
2022-08-16T18:31:29.980Z,26.90
2022-08-16T18:33:59.159Z,26.80
2022-08-16T18:36:26.973Z,26.70
2022-08-16T18:38:55.421Z,26.70
2022-08-16T18:41:25.631Z,26.60
2022-08-16T18:44:25.686Z,26.40
2022-08-16T18:46:44.174Z,26.30
2022-08-16T18:49:18.212Z,26.30
2022-08-16T18:51:46.339Z,26.30
2022-08-16T18:54:17.887Z,26.20
2022-08-16T18:56:56.499Z,26.10
2022-08-16T18:59:27.561Z,26.10
2022-08-16T19:02:00.429Z,25.90
2022-08-16T19:04:47.623Z,25.90
2022-08-16T19:07:30.983Z,25.70
2022-08-16T19:10:00.756Z,25.60
2022-08-16T19:12:37.909Z,25.50
2022-08-16T19:15:15.681Z,25.30
2022-08-16T19:17:44.185Z,25.20
2022-08-16T19:20:15.883Z,25.10
2022-08-16T19:25:48.082Z,24.90
2022-08-16T19:28:50.663Z,24.80
2022-08-16T19:31:14.566Z,24.60
2022-08-16T19:33:53.781Z,24.40
2022-08-16T19:36:31.068Z,24.30
2022-08-16T19:39:05.471Z,24.30
2022-08-16T19:41:35.260Z,24.30
2022-08-16T19:44:03.409Z,24.20
2022-08-16T19:46:31.890Z,24.10
2022-08-16T19:48:59.836Z,24.00
2022-08-16T19:51:29.057Z,23.80
2022-08-16T19:53:56.878Z,23.80
2022-08-16T19:56:26.517Z,23.80
2022-08-16T20:01:43.584Z,23.60
2022-08-16T20:04:13.272Z,23.50
2022-08-16T20:06:43.146Z,23.40
2022-08-16T20:09:14.823Z,23.30
2022-08-16T20:11:43.560Z,23.20
2022-08-16T20:14:11.496Z,23.20
2022-08-16T20:16:47.280Z,23.00
2022-08-16T20:19:15.131Z,23.00
2022-08-16T20:21:44.833Z,22.90
2022-08-16T20:24:32.858Z,22.90
2022-08-16T20:27:00.424Z,22.80
2022-08-16T20:29:28.479Z,22.80
2022-08-16T20:31:57.589Z,22.80
2022-08-16T20:34:25.577Z,22.80
2022-08-16T20:36:54.718Z,22.70
2022-08-16T20:39:24.063Z,22.60
2022-08-16T20:41:52.421Z,22.70
2022-08-16T20:44:22.992Z,22.80
2022-08-16T20:46:53.307Z,22.70
2022-08-16T20:49:21.131Z,22.60
2022-08-16T20:51:51.742Z,22.40
2022-08-16T20:54:24.230Z,22.20
2022-08-16T20:56:52.410Z,22.10
2022-08-16T20:59:20.300Z,22.20
2022-08-16T21:01:50.307Z,22.20
2022-08-16T21:04:19.004Z,22.20
2022-08-16T21:06:53.796Z,22.10
2022-08-16T21:09:25.112Z,22.10
2022-08-16T21:11:54.899Z,22.00
2022-08-16T21:14:22.917Z,21.80
2022-08-16T21:16:51.148Z,21.80
2022-08-16T21:19:19.046Z,21.70
2022-08-16T21:21:47.192Z,21.70
2022-08-16T21:24:15.501Z,21.50
2022-08-16T21:26:49.843Z,21.40
2022-08-16T21:29:28.486Z,21.30
2022-08-16T21:32:13.773Z,21.30
2022-08-16T21:34:42.363Z,21.30
2022-08-16T21:37:12.043Z,21.00
2022-08-16T21:39:43.755Z,21.00
2022-08-16T21:42:17.427Z,20.90
2022-08-16T21:44:45.928Z,21.00
2022-08-16T21:47:13.745Z,20.90
2022-08-16T21:49:41.819Z,20.80
2022-08-16T21:52:25.923Z,20.70
2022-08-16T21:54:56.393Z,20.60
2022-08-16T21:57:26.077Z,20.50
2022-08-16T21:59:56.178Z,20.60
2022-08-16T22:02:27.820Z,20.70
2022-08-16T22:05:05.287Z,20.70
2022-08-16T22:07:33.284Z,20.70
2022-08-16T22:11:04.841Z,20.70
2022-08-16T22:12:50.900Z,20.80
2022-08-16T22:15:25.665Z,20.80
2022-08-16T22:17:54.799Z,20.80
2022-08-16T22:20:23.955Z,20.80
2022-08-16T22:22:52.072Z,20.80
2022-08-16T22:25:20.072Z,20.80
2022-08-16T22:27:47.871Z,20.80
2022-08-16T22:30:17.019Z,20.60
2022-08-16T22:32:46.674Z,20.50
2022-08-16T22:35:14.564Z,20.60
2022-08-16T22:38:49.718Z,20.60
2022-08-16T22:40:30.268Z,20.50
2022-08-16T22:42:58.418Z,20.70
2022-08-16T22:45:27.580Z,20.70
2022-08-16T22:47:55.996Z,20.60
2022-08-16T22:50:24.530Z,20.60
2022-08-16T22:52:58.214Z,20.50
2022-08-16T22:55:27.682Z,20.40
2022-08-16T22:57:56.216Z,20.50
2022-08-16T23:00:27.898Z,20.50
2022-08-16T23:02:59.901Z,20.50
2022-08-16T23:05:30.172Z,20.40
2022-08-16T23:07:58.154Z,20.40
2022-08-16T23:10:26.095Z,20.40
2022-08-16T23:12:57.184Z,20.40
2022-08-16T23:15:27.904Z,20.30
2022-08-16T23:17:56.838Z,20.30
2022-08-16T23:20:27.057Z,20.30
2022-08-16T23:23:20.355Z,20.40
2022-08-16T23:25:47.125Z,20.30
2022-08-16T23:28:15.407Z,20.30
2022-08-16T23:30:44.605Z,20.10
2022-08-16T23:33:15.303Z,20.00
2022-08-16T23:35:46.538Z,20.10
2022-08-16T23:38:38.330Z,20.00
2022-08-16T23:41:05.487Z,20.10
2022-08-16T23:43:43.176Z,20.00
2022-08-16T23:46:15.083Z,20.10
2022-08-16T23:49:56.077Z,20.20
2022-08-16T23:51:31.964Z,20.10
2022-08-16T23:54:00.553Z,20.10
2022-08-16T23:56:30.077Z,20.20
2022-08-16T23:59:08.259Z,20.20
